createdAt,value
2023-09-08T00:00:02.663Z,20.60
2023-09-08T00:02:29.800Z,20.60
2023-09-08T00:04:57.079Z,20.50
2023-09-08T00:07:24.187Z,20.50
2023-09-08T00:09:51.393Z,20.40
2023-09-08T00:12:19.820Z,20.40
2023-09-08T00:14:46.707Z,20.40
2023-09-08T00:17:13.612Z,20.40
2023-09-08T00:19:40.596Z,20.30
2023-09-08T00:22:08.249Z,20.30
2023-09-08T00:24:35.297Z,20.30
2023-09-08T00:27:02.311Z,20.30
2023-09-08T00:29:30.870Z,20.30
2023-09-08T00:31:57.758Z,20.30
2023-09-08T00:34:24.671Z,20.20
2023-09-08T00:36:52.321Z,20.20
2023-09-08T00:39:19.245Z,20.20
2023-09-08T00:41:46.072Z,20.20
2023-09-08T00:44:13.014Z,20.10
2023-09-08T00:46:41.775Z,20.10
2023-09-08T00:49:10.145Z,20.10
2023-09-08T00:51:38.786Z,20.10
2023-09-08T00:54:07.147Z,20.00
2023-09-08T00:56:34.984Z,20.00
2023-09-08T00:59:03.542Z,20.00
2023-09-08T01:01:30.700Z,20.00
2023-09-08T01:04:01.681Z,20.00
2023-09-08T01:06:29.011Z,20.00
2023-09-08T01:08:56.654Z,19.90
2023-09-08T01:11:24.128Z,19.90
2023-09-08T01:13:50.953Z,19.90
2023-09-08T01:16:17.868Z,19.80
2023-09-08T01:18:47.179Z,19.80
2023-09-08T01:21:46.022Z,19.80
2023-09-08T01:24:43.746Z,19.80
2023-09-08T01:27:15.237Z,19.70
2023-09-08T01:29:44.897Z,19.60
2023-09-08T01:32:12.036Z,19.50
2023-09-08T01:34:42.103Z,19.50
2023-09-08T01:37:09.500Z,19.50
2023-09-08T01:39:36.912Z,19.50
2023-09-08T01:42:04.580Z,19.30
2023-09-08T01:44:32.791Z,19.50
2023-09-08T01:46:59.740Z,19.40
2023-09-08T01:49:26.657Z,19.40
2023-09-08T01:51:53.687Z,19.40
2023-09-08T01:54:20.608Z,19.30
2023-09-08T01:56:47.484Z,19.30
2023-09-08T01:59:14.333Z,19.30
2023-09-08T02:01:42.499Z,19.20
2023-09-08T02:04:09.453Z,19.20
2023-09-08T02:06:36.307Z,19.20
2023-09-08T02:09:03.184Z,19.20
2023-09-08T02:11:30.052Z,19.20
2023-09-08T02:13:58.623Z,19.20
2023-09-08T02:16:25.803Z,19.20
2023-09-08T02:18:54.094Z,19.10
2023-09-08T02:21:21.520Z,19.10
2023-09-08T02:23:48.397Z,19.10
2023-09-08T02:26:15.260Z,19.10
2023-09-08T02:28:42.086Z,19.00
2023-09-08T02:31:08.959Z,19.00
2023-09-08T02:33:35.901Z,18.90
2023-09-08T02:36:06.380Z,18.90
2023-09-08T02:38:33.430Z,18.90
2023-09-08T02:41:00.416Z,18.80
2023-09-08T02:43:28.399Z,18.80
2023-09-08T02:45:55.861Z,18.80
2023-09-08T02:48:22.974Z,18.70
2023-09-08T02:50:49.812Z,18.80
2023-09-08T02:53:18.213Z,18.80
2023-09-08T02:55:46.710Z,18.80
2023-09-08T02:58:13.570Z,18.60
2023-09-08T03:00:40.484Z,18.80
2023-09-08T03:03:07.452Z,18.80
2023-09-08T03:05:34.663Z,18.80
2023-09-08T03:08:01.593Z,18.80
2023-09-08T03:10:30.660Z,18.80
2023-09-08T03:12:57.446Z,18.80
2023-09-08T03:15:24.363Z,18.80
2023-09-08T03:17:51.302Z,18.70
2023-09-08T03:20:18.395Z,18.70
2023-09-08T03:22:45.177Z,18.70
2023-09-08T03:25:12.081Z,18.60
2023-09-08T03:27:40.281Z,18.60
2023-09-08T03:30:08.385Z,18.60
2023-09-08T03:32:35.477Z,18.60
2023-09-08T03:35:02.391Z,18.60
2023-09-08T03:37:29.175Z,18.60
2023-09-08T03:39:55.983Z,18.60
2023-09-08T03:42:22.924Z,18.60
2023-09-08T03:44:51.045Z,18.60
2023-09-08T03:47:17.976Z,18.50
2023-09-08T03:49:44.809Z,18.50
2023-09-08T03:52:11.642Z,18.50
2023-09-08T03:54:38.860Z,18.50
2023-09-08T03:57:05.813Z,18.50
2023-09-08T03:59:32.857Z,18.40
2023-09-08T04:02:02.366Z,18.30
2023-09-08T04:04:29.260Z,18.30
2023-09-08T04:06:56.082Z,18.20
2023-09-08T04:09:23.009Z,18.20
2023-09-08T04:11:49.927Z,18.20
2023-09-08T04:14:16.794Z,18.10
2023-09-08T04:16:43.669Z,18.10
2023-09-08T04:19:11.820Z,18.10
2023-09-08T04:21:38.691Z,18.10
2023-09-08T04:24:07.524Z,18.00
2023-09-08T04:26:34.390Z,18.00
2023-09-08T04:29:01.180Z,17.90
2023-09-08T04:31:28.065Z,17.90
2023-09-08T04:33:55.278Z,17.90
2023-09-08T04:36:23.520Z,18.00
2023-09-08T04:38:50.371Z,18.00
2023-09-08T04:41:17.193Z,18.00
2023-09-08T04:43:44.085Z,18.00
2023-09-08T04:46:10.993Z,18.00
2023-09-08T04:48:40.684Z,18.00
2023-09-08T04:51:08.217Z,18.00
2023-09-08T04:53:37.632Z,18.00
2023-09-08T04:56:04.786Z,18.10
2023-09-08T04:58:31.588Z,18.10
2023-09-08T05:00:58.450Z,18.10
2023-09-08T05:03:27.236Z,18.10
2023-09-08T05:05:54.311Z,18.10
2023-09-08T05:08:21.947Z,17.90
2023-09-08T05:10:50.175Z,18.10
2023-09-08T05:13:30.136Z,18.10
2023-09-08T05:16:11.873Z,18.00
2023-09-08T05:18:39.631Z,18.00
2023-09-08T05:21:06.681Z,18.00
2023-09-08T05:23:33.643Z,18.00
2023-09-08T05:26:01.976Z,18.00
2023-09-08T05:28:29.045Z,18.00
2023-09-08T05:30:56.085Z,18.00
2023-09-08T05:33:23.158Z,18.00
2023-09-08T05:35:50.031Z,18.00
2023-09-08T05:38:16.819Z,18.00
2023-09-08T05:40:44.295Z,18.10
2023-09-08T05:43:12.490Z,18.10
2023-09-08T05:45:39.378Z,18.20
2023-09-08T05:48:07.025Z,18.20
2023-09-08T05:50:34.340Z,18.30
2023-09-08T05:53:01.233Z,18.30
2023-09-08T05:55:28.056Z,18.40
2023-09-08T05:57:55.028Z,18.50
2023-09-08T06:00:23.832Z,18.60
2023-09-08T06:02:52.138Z,18.60
2023-09-08T06:05:19.398Z,18.70
2023-09-08T06:07:57.190Z,18.70
2023-09-08T06:10:31.802Z,18.80
2023-09-08T06:12:58.754Z,18.90
2023-09-08T06:15:27.053Z,19.00
2023-09-08T06:17:54.062Z,19.10
2023-09-08T06:20:21.073Z,19.30
2023-09-08T06:22:47.987Z,19.40
2023-09-08T06:25:14.976Z,19.60
2023-09-08T06:27:41.905Z,19.80
2023-09-08T06:30:09.860Z,20.00
2023-09-08T06:32:38.127Z,20.20
2023-09-08T06:35:05.397Z,20.40
2023-09-08T06:37:36.843Z,20.70
2023-09-08T06:40:04.570Z,20.90
2023-09-08T06:42:31.617Z,21.20
2023-09-08T06:45:00.129Z,21.40
2023-09-08T06:47:27.336Z,21.70
2023-09-08T06:49:55.820Z,22.00
2023-09-08T06:52:22.829Z,22.20
2023-09-08T06:54:49.850Z,22.50
2023-09-08T06:57:19.847Z,22.90
2023-09-08T06:59:47.047Z,23.30
2023-09-08T07:02:14.064Z,23.80
2023-09-08T07:04:41.228Z,24.40
2023-09-08T07:07:11.592Z,25.00
2023-09-08T07:09:38.741Z,25.70
2023-09-08T07:12:07.408Z,26.50
2023-09-08T07:14:34.389Z,27.20
2023-09-08T07:17:01.359Z,27.90
2023-09-08T07:19:28.692Z,28.60
2023-09-08T07:21:55.671Z,29.30
2023-09-08T07:24:25.000Z,29.90
2023-09-08T07:26:52.248Z,30.50
2023-09-08T07:29:19.572Z,30.90
2023-09-08T07:31:46.533Z,31.40
2023-09-08T07:34:13.476Z,31.70
2023-09-08T07:36:41.041Z,31.90
2023-09-08T07:39:08.074Z,32.00
2023-09-08T07:41:37.516Z,32.20
2023-09-08T07:44:04.903Z,32.30
2023-09-08T07:46:32.000Z,32.30
2023-09-08T07:49:00.030Z,32.30
2023-09-08T07:51:27.240Z,32.30
2023-09-08T07:53:54.921Z,32.20
2023-09-08T07:56:21.894Z,32.00
2023-09-08T07:58:50.233Z,31.80
2023-09-08T08:01:17.446Z,31.60
2023-09-08T08:03:44.338Z,31.30
2023-09-08T08:06:11.280Z,31.20
2023-09-08T08:08:39.664Z,31.10
2023-09-08T08:11:11.592Z,31.00
2023-09-08T08:13:38.449Z,30.70
2023-09-08T08:16:07.036Z,30.50
2023-09-08T08:18:34.133Z,30.30
2023-09-08T08:21:01.686Z,30.20
2023-09-08T08:23:28.525Z,30.10
2023-09-08T08:25:55.571Z,30.00
2023-09-08T08:28:22.446Z,30.00
2023-09-08T08:30:49.514Z,29.90
2023-09-08T08:33:18.234Z,29.80
2023-09-08T08:35:49.969Z,29.70
2023-09-08T08:38:17.051Z,29.70
2023-09-08T08:40:44.000Z,29.70
2023-09-08T08:43:11.377Z,29.70
2023-09-08T08:45:40.207Z,29.50
2023-09-08T08:48:09.708Z,29.50
2023-09-08T08:50:39.664Z,29.50
2023-09-08T08:53:07.667Z,29.70
2023-09-08T08:55:35.733Z,29.80
2023-09-08T08:58:05.434Z,30.00
2023-09-08T09:00:36.501Z,30.20
2023-09-08T09:03:14.737Z,30.30
2023-09-08T09:05:48.567Z,30.40
2023-09-08T09:08:17.358Z,30.50
2023-09-08T09:10:44.330Z,30.70
2023-09-08T09:13:11.213Z,30.90
2023-09-08T09:15:38.339Z,31.10
2023-09-08T09:18:07.293Z,31.30
2023-09-08T09:20:35.294Z,31.40
2023-09-08T09:23:04.540Z,31.40
2023-09-08T09:25:32.830Z,31.50
2023-09-08T09:28:01.166Z,31.50
2023-09-08T09:30:28.963Z,31.60
2023-09-08T09:33:03.214Z,31.70
2023-09-08T09:35:44.552Z,31.80
2023-09-08T09:38:13.476Z,32.00
2023-09-08T09:40:40.844Z,32.20
2023-09-08T09:43:08.965Z,32.20
2023-09-08T09:45:37.397Z,32.20
2023-09-08T09:48:05.457Z,32.20
2023-09-08T09:50:34.621Z,32.30
2023-09-08T09:53:04.032Z,32.50
2023-09-08T09:55:32.717Z,32.50
2023-09-08T09:58:05.064Z,32.60
2023-09-08T10:00:35.588Z,32.80
2023-09-08T10:03:03.840Z,33.00
2023-09-08T10:05:30.986Z,33.20
2023-09-08T10:07:58.844Z,33.40
2023-09-08T10:10:29.120Z,33.50
2023-09-08T10:13:02.613Z,33.70
2023-09-08T10:15:31.602Z,33.90
2023-09-08T10:18:00.016Z,34.10
2023-09-08T10:20:29.777Z,34.30
2023-09-08T10:23:05.734Z,34.40
2023-09-08T10:25:36.682Z,34.30
2023-09-08T10:28:05.977Z,34.50
2023-09-08T10:30:33.607Z,34.50
2023-09-08T10:33:01.826Z,34.60
2023-09-08T10:35:30.111Z,34.60
2023-09-08T10:38:22.916Z,34.60
2023-09-08T10:40:49.759Z,34.50
2023-09-08T10:43:19.836Z,34.30
2023-09-08T10:45:47.283Z,34.20
2023-09-08T10:48:15.733Z,34.30
2023-09-08T10:50:43.565Z,34.50
2023-09-08T10:53:15.161Z,34.60
2023-09-08T10:55:44.282Z,34.70
2023-09-08T10:58:11.966Z,34.70
2023-09-08T11:00:49.185Z,34.70
2023-09-08T11:03:27.964Z,35.00
2023-09-08T11:05:55.528Z,35.10
2023-09-08T11:08:22.989Z,35.20
2023-09-08T11:10:50.512Z,35.20
2023-09-08T11:13:17.405Z,35.10
2023-09-08T11:15:44.241Z,35.20
2023-09-08T11:18:13.032Z,35.40
2023-09-08T11:20:40.146Z,35.60
2023-09-08T11:23:07.192Z,35.80
2023-09-08T11:25:35.433Z,36.00
2023-09-08T11:28:02.886Z,36.10
2023-09-08T11:30:30.164Z,36.40
2023-09-08T11:32:59.856Z,36.80
2023-09-08T11:35:33.895Z,37.30
2023-09-08T11:38:02.165Z,37.70
2023-09-08T11:40:29.244Z,38.00
2023-09-08T11:42:56.182Z,38.40
2023-09-08T11:45:24.306Z,38.70
2023-09-08T11:47:54.377Z,39.10
2023-09-08T11:50:21.442Z,39.40
2023-09-08T11:52:50.723Z,39.60
2023-09-08T11:55:18.854Z,39.70
2023-09-08T11:57:48.712Z,39.70
2023-09-08T12:00:20.664Z,39.50
2023-09-08T12:02:47.797Z,39.40
2023-09-08T12:05:21.096Z,39.40
2023-09-08T12:07:49.663Z,39.50
2023-09-08T12:10:16.593Z,39.50
2023-09-08T12:12:44.885Z,39.50
2023-09-08T12:15:12.292Z,39.30
2023-09-08T12:17:49.189Z,39.00
2023-09-08T12:20:17.520Z,38.90
2023-09-08T12:22:52.545Z,38.80
2023-09-08T12:25:19.845Z,38.70
2023-09-08T12:27:50.547Z,38.60
2023-09-08T12:30:22.209Z,38.20
2023-09-08T12:32:50.366Z,37.80
2023-09-08T12:35:23.865Z,37.30
2023-09-08T12:37:57.900Z,37.10
2023-09-08T12:40:25.155Z,37.00
2023-09-08T12:42:54.250Z,36.80
2023-09-08T12:45:27.079Z,36.50
2023-09-08T12:47:55.990Z,36.30
2023-09-08T12:50:23.046Z,36.00
2023-09-08T12:52:50.045Z,35.70
2023-09-08T12:55:18.439Z,35.60
2023-09-08T12:57:45.416Z,35.50
2023-09-08T13:00:13.725Z,35.30
2023-09-08T13:02:41.489Z,35.30
2023-09-08T13:05:09.114Z,35.20
2023-09-08T13:07:36.036Z,35.10
2023-09-08T13:10:02.993Z,34.90
2023-09-08T13:12:32.380Z,34.80
2023-09-08T13:14:59.433Z,34.70
2023-09-08T13:17:26.420Z,34.40
2023-09-08T13:19:54.327Z,34.30
2023-09-08T13:22:21.438Z,34.10
2023-09-08T13:24:48.304Z,34.10
2023-09-08T13:27:18.209Z,34.10
2023-09-08T13:29:46.454Z,34.20
2023-09-08T13:32:13.468Z,34.30
2023-09-08T13:34:40.477Z,34.40
2023-09-08T13:37:07.402Z,34.50
2023-09-08T13:39:34.300Z,34.50
2023-09-08T13:42:02.443Z,34.50
2023-09-08T13:44:29.479Z,34.50
2023-09-08T13:46:58.089Z,34.50
2023-09-08T13:49:27.117Z,34.50
2023-09-08T13:51:56.999Z,34.50
2023-09-08T13:54:25.354Z,34.50
2023-09-08T13:57:01.210Z,34.50
2023-09-08T13:59:30.332Z,34.50
2023-09-08T14:02:32.561Z,34.50
2023-09-08T14:09:55.356Z,34.20
2023-09-08T14:12:34.710Z,34.10
2023-09-08T14:15:03.346Z,34.00
2023-09-08T14:17:31.668Z,33.90
2023-09-08T14:19:58.554Z,33.90
2023-09-08T14:22:25.825Z,33.90
2023-09-08T14:24:52.781Z,33.90
2023-09-08T14:27:19.619Z,33.90
2023-09-08T14:29:46.523Z,33.90
2023-09-08T14:32:13.426Z,34.00
2023-09-08T14:34:41.729Z,34.00
2023-09-08T14:37:11.007Z,34.10
2023-09-08T14:39:38.789Z,34.00
2023-09-08T14:42:06.570Z,33.90
2023-09-08T14:44:33.750Z,33.90
2023-09-08T14:47:00.802Z,33.90
2023-09-08T14:49:27.799Z,33.90
2023-09-08T14:51:56.044Z,33.80
2023-09-08T14:54:23.157Z,33.70
2023-09-08T14:56:50.038Z,33.60
2023-09-08T14:59:16.860Z,33.40
2023-09-08T15:01:45.855Z,33.30
2023-09-08T15:04:13.145Z,33.20
2023-09-08T15:06:40.000Z,33.20
2023-09-08T15:09:08.268Z,33.30
2023-09-08T15:11:35.115Z,33.30
2023-09-08T15:14:02.010Z,33.30
2023-09-08T15:16:28.970Z,33.30
2023-09-08T15:18:58.139Z,33.30
2023-09-08T15:21:28.509Z,33.30
2023-09-08T15:23:55.480Z,33.30
2023-09-08T15:26:23.779Z,33.30
2023-09-08T15:28:50.680Z,33.20
2023-09-08T15:31:18.108Z,33.20
2023-09-08T15:33:45.271Z,33.10
2023-09-08T15:36:12.206Z,33.10
2023-09-08T15:38:39.113Z,33.10
2023-09-08T15:41:19.366Z,33.00
2023-09-08T15:43:51.688Z,33.10
2023-09-08T15:46:19.042Z,33.00
2023-09-08T15:48:45.953Z,32.90
2023-09-08T15:51:12.912Z,32.90
2023-09-08T15:53:40.072Z,32.90
2023-09-08T15:56:07.862Z,32.80
2023-09-08T15:58:34.855Z,32.70
2023-09-08T16:01:03.301Z,32.80
2023-09-08T16:03:30.272Z,32.70
2023-09-08T16:05:57.189Z,32.70
2023-09-08T16:08:25.368Z,32.60
2023-09-08T16:10:52.929Z,32.60
2023-09-08T16:13:20.040Z,32.50
2023-09-08T16:15:47.063Z,32.40
2023-09-08T16:18:15.287Z,32.30
2023-09-08T16:20:42.896Z,32.20
2023-09-08T16:23:10.397Z,32.10
2023-09-08T16:25:37.413Z,32.10
2023-09-08T16:28:04.866Z,31.90
2023-09-08T16:30:31.817Z,31.90
2023-09-08T16:32:58.763Z,31.70
2023-09-08T16:35:28.043Z,31.70
2023-09-08T16:37:54.980Z,31.50
2023-09-08T16:40:23.596Z,31.50
2023-09-08T16:42:50.760Z,31.40
2023-09-08T16:45:17.872Z,31.30
2023-09-08T16:47:44.848Z,31.20
2023-09-08T16:50:11.882Z,31.10
2023-09-08T16:52:40.080Z,31.00
2023-09-08T16:55:12.365Z,30.90
2023-09-08T16:57:39.910Z,30.90
2023-09-08T17:00:08.359Z,30.80
2023-09-08T17:02:36.013Z,30.70
2023-09-08T17:05:03.466Z,30.60
2023-09-08T17:07:30.371Z,30.60
2023-09-08T17:09:58.991Z,30.50
2023-09-08T17:12:27.277Z,30.50
2023-09-08T17:14:54.612Z,30.40
2023-09-08T17:17:21.591Z,30.30
2023-09-08T17:19:48.435Z,30.20
2023-09-08T17:22:15.592Z,30.10
2023-09-08T17:24:42.733Z,30.00
2023-09-08T17:27:11.084Z,30.00
2023-09-08T17:29:37.882Z,29.90
2023-09-08T17:32:05.322Z,29.80
2023-09-08T17:34:32.166Z,29.70
2023-09-08T17:37:01.401Z,29.60
2023-09-08T17:39:28.577Z,29.50
2023-09-08T17:41:55.515Z,29.50
2023-09-08T17:44:23.846Z,29.40
2023-09-08T17:46:51.082Z,29.30
2023-09-08T17:49:18.067Z,29.20
2023-09-08T17:51:44.922Z,28.90
2023-09-08T17:54:11.859Z,29.00
2023-09-08T17:56:38.726Z,28.80
2023-09-08T17:59:05.604Z,28.70
2023-09-08T18:01:34.605Z,28.50
2023-09-08T18:04:01.786Z,28.40
2023-09-08T18:06:28.785Z,28.20
2023-09-08T18:08:55.759Z,28.10
2023-09-08T18:11:22.670Z,28.00
2023-09-08T18:13:49.813Z,27.80
2023-09-08T18:16:17.495Z,27.60
2023-09-08T18:18:47.133Z,27.50
2023-09-08T18:21:14.388Z,27.30
2023-09-08T18:23:41.663Z,27.20
2023-09-08T18:26:08.659Z,27.10
2023-09-08T18:28:35.617Z,27.00
2023-09-08T18:31:02.823Z,26.90
2023-09-08T18:33:30.482Z,26.80
2023-09-08T18:35:58.909Z,26.60
2023-09-08T18:38:26.281Z,26.60
2023-09-08T18:40:53.344Z,26.40
2023-09-08T18:43:20.437Z,26.30
2023-09-08T18:45:47.490Z,26.20
2023-09-08T18:48:14.584Z,26.10
2023-09-08T18:50:42.996Z,26.10
2023-09-08T18:53:11.540Z,26.00
2023-09-08T18:55:38.497Z,25.90
2023-09-08T18:58:06.465Z,25.80
2023-09-08T19:00:33.602Z,25.80
2023-09-08T19:03:00.897Z,25.70
2023-09-08T19:05:27.983Z,25.60
2023-09-08T19:07:54.892Z,25.50
2023-09-08T19:10:23.196Z,25.40
2023-09-08T19:12:50.154Z,25.30
2023-09-08T19:15:18.240Z,25.20
2023-09-08T19:17:47.240Z,25.10
2023-09-08T19:20:14.267Z,25.10
2023-09-08T19:22:41.201Z,24.90
2023-09-08T19:25:10.512Z,24.80
2023-09-08T19:27:38.995Z,24.70
2023-09-08T19:30:07.009Z,24.70
2023-09-08T19:32:34.340Z,24.60
2023-09-08T19:35:01.466Z,24.60
2023-09-08T19:37:28.460Z,24.50
2023-09-08T19:39:55.403Z,24.50
2023-09-08T19:42:22.263Z,24.40
2023-09-08T19:44:50.534Z,24.40
2023-09-08T19:47:17.410Z,24.30
2023-09-08T19:49:44.270Z,24.30
2023-09-08T19:52:13.389Z,24.20
2023-09-08T19:54:40.361Z,24.10
2023-09-08T19:57:07.393Z,24.10
2023-09-08T19:59:34.254Z,24.10
2023-09-08T20:02:02.579Z,24.00
2023-09-08T20:04:29.558Z,24.00
2023-09-08T20:06:58.404Z,23.90
2023-09-08T20:09:25.605Z,23.90
2023-09-08T20:11:52.887Z,23.80
2023-09-08T20:14:19.968Z,23.80
2023-09-08T20:16:46.864Z,23.80
2023-09-08T20:19:15.084Z,23.70
2023-09-08T20:21:42.406Z,23.70
2023-09-08T20:24:09.628Z,23.70
2023-09-08T20:26:36.719Z,23.70
2023-09-08T20:29:03.629Z,23.60
2023-09-08T20:31:31.267Z,23.60
2023-09-08T20:33:58.172Z,23.60
2023-09-08T20:36:26.487Z,23.50
2023-09-08T20:38:53.283Z,23.50
2023-09-08T20:41:20.234Z,23.50
2023-09-08T20:43:47.571Z,23.50
2023-09-08T20:46:14.624Z,23.40
2023-09-08T20:48:41.701Z,23.40
2023-09-08T20:51:10.198Z,23.40
2023-09-08T20:53:40.753Z,23.40
2023-09-08T20:56:10.251Z,23.30
2023-09-08T20:58:37.425Z,23.30
2023-09-08T21:01:04.531Z,23.30
2023-09-08T21:03:31.729Z,23.30
2023-09-08T21:05:59.679Z,23.20
2023-09-08T21:08:26.669Z,23.20
2023-09-08T21:11:00.609Z,23.10
2023-09-08T21:13:27.581Z,23.10
2023-09-08T21:15:54.479Z,23.10
2023-09-08T21:18:21.548Z,23.00
2023-09-08T21:20:49.464Z,23.00
2023-09-08T21:23:16.596Z,22.90
2023-09-08T21:25:43.526Z,22.90
2023-09-08T21:28:11.718Z,22.90
2023-09-08T21:30:38.586Z,22.80
2023-09-08T21:33:06.140Z,22.80
2023-09-08T21:35:33.159Z,22.70
2023-09-08T21:38:00.032Z,22.70
2023-09-08T21:40:26.980Z,22.60
2023-09-08T21:42:53.897Z,22.60
2023-09-08T21:45:22.208Z,22.50
2023-09-08T21:47:51.140Z,22.50
2023-09-08T21:50:18.841Z,22.50
2023-09-08T21:52:46.058Z,22.40
2023-09-08T21:55:13.180Z,22.40
2023-09-08T21:57:40.042Z,22.40
2023-09-08T22:00:11.816Z,22.30
2023-09-08T22:02:40.198Z,22.30
2023-09-08T22:05:07.768Z,22.30
2023-09-08T22:07:34.847Z,22.20
2023-09-08T22:10:01.887Z,22.20
2023-09-08T22:12:28.813Z,22.10
2023-09-08T22:14:56.790Z,22.10
2023-09-08T22:17:23.824Z,22.00
2023-09-08T22:19:54.267Z,21.90
2023-09-08T22:22:21.226Z,21.90
2023-09-08T22:24:48.125Z,21.90
2023-09-08T22:27:15.592Z,21.90
2023-09-08T22:29:42.440Z,21.80
2023-09-08T22:32:09.288Z,21.80
2023-09-08T22:34:36.305Z,21.80
2023-09-08T22:37:04.953Z,21.80
2023-09-08T22:39:33.536Z,21.70
2023-09-08T22:42:00.416Z,21.70
2023-09-08T22:44:27.289Z,21.70
2023-09-08T22:46:54.245Z,21.70
2023-09-08T22:49:21.031Z,21.70
2023-09-08T22:51:48.346Z,21.60
2023-09-08T22:54:16.529Z,21.60
2023-09-08T22:56:43.970Z,21.60
2023-09-08T22:59:11.172Z,21.50
2023-09-08T23:01:38.160Z,21.50
2023-09-08T23:04:06.165Z,21.50
2023-09-08T23:06:33.019Z,21.50
2023-09-08T23:08:59.921Z,21.40
2023-09-08T23:11:29.675Z,21.40
2023-09-08T23:13:56.546Z,21.40
2023-09-08T23:16:23.439Z,21.30
2023-09-08T23:18:50.281Z,21.30
2023-09-08T23:21:17.073Z,21.30
2023-09-08T23:23:43.883Z,21.20
2023-09-08T23:26:10.795Z,21.20
2023-09-08T23:28:39.044Z,21.20
2023-09-08T23:31:05.970Z,21.20
2023-09-08T23:33:33.050Z,21.10
2023-09-08T23:35:59.874Z,21.10
2023-09-08T23:38:26.715Z,21.10
2023-09-08T23:40:53.522Z,21.10
2023-09-08T23:43:20.534Z,21.10
2023-09-08T23:45:48.873Z,21.00
2023-09-08T23:48:16.129Z,21.00
2023-09-08T23:50:54.698Z,21.00
2023-09-08T23:53:21.574Z,20.90
2023-09-08T23:55:49.867Z,20.90
2023-09-08T23:58:17.538Z,20.90
